Time;durP1;ratioP1;P1;durP2;ratioP2;P2;SDS_P1;SDS_P2;PMS_P1;PMS_P2;Temp;Humidity;BMP_temperature;BMP_pressure;BME280_temperature;BME280_humidity;BME280_pressure;Samples;Min_cycle;Max_cycle;Signal;HPM_P1;HPM_P2
2021/08/03 00:01:52;;;;;;;0.67;0.30;;;14.30;99.90;;;;;;5054164;28;20466;-83
2021/08/03 00:04:20;;;;;;;0.40;0.30;;;14.40;99.90;;;;;;5054029;28;20485;-84
2021/08/03 00:06:51;;;;;;;0.30;0.30;;;14.40;99.90;;;;;;5053926;28;20450;-84
2021/08/03 00:09:20;;;;;;;0.30;0.30;;;14.40;99.90;;;;;;5053825;28;20457;-84
2021/08/03 00:11:47;;;;;;;0.80;0.30;;;14.40;99.90;;;;;;5053806;28;20474;-84
2021/08/03 00:14:15;;;;;;;0.40;0.40;;;14.40;99.90;;;;;;5053831;28;20453;-84
2021/08/03 00:16:44;;;;;;;1.00;0.70;;;14.50;99.90;;;;;;5053377;28;20968;-84
2021/08/03 00:19:11;;;;;;;1.17;0.40;;;14.40;99.90;;;;;;5053633;28;20453;-84
2021/08/03 00:21:38;;;;;;;0.40;0.30;;;14.40;99.90;;;;;;5053225;28;20477;-83
2021/08/03 00:24:06;;;;;;;0.30;0.30;;;14.50;99.90;;;;;;5053494;28;20481;-84
2021/08/03 00:26:34;;;;;;;1.80;0.53;;;14.50;99.90;;;;;;5053559;28;20491;-83
2021/08/03 00:29:01;;;;;;;0.30;0.30;;;14.50;99.90;;;;;;5053225;28;20453;-84
2021/08/03 00:31:28;;;;;;;1.13;0.60;;;14.50;99.90;;;;;;5053345;28;20474;-84
2021/08/03 00:33:56;;;;;;;0.30;0.30;;;14.50;99.90;;;;;;5053319;28;20449;-84
2021/08/03 00:36:26;;;;;;;0.60;0.60;;;14.50;99.90;;;;;;5052905;28;20477;-84
2021/08/03 00:38:54;;;;;;;0.60;0.30;;;14.50;99.90;;;;;;5053079;28;20430;-84
2021/08/03 00:41:25;;;;;;;0.53;0.30;;;14.50;99.90;;;;;;5053232;28;20524;-84
2021/08/03 00:43:53;;;;;;;0.60;0.30;;;14.50;99.90;;;;;;5053339;28;20438;-84
2021/08/03 00:46:19;;;;;;;0.30;0.30;;;14.50;99.90;;;;;;5053062;28;20449;-84
2021/08/03 00:48:46;;;;;;;0.50;0.40;;;14.50;99.90;;;;;;5053278;28;20449;-84
2021/08/03 00:51:13;;;;;;;0.40;0.30;;;14.50;99.90;;;;;;5053011;28;20477;-84
2021/08/03 00:53:43;;;;;;;0.50;0.33;;;14.60;99.90;;;;;;5053122;28;20452;-84
2021/08/03 00:56:10;;;;;;;0.40;0.33;;;14.50;99.90;;;;;;5053274;28;20430;-84
2021/08/03 00:58:38;;;;;;;0.40;0.40;;;14.50;99.90;;;;;;5053097;28;20783;-84
2021/08/03 01:01:07;;;;;;;0.30;0.30;;;14.50;99.90;;;;;;5053125;28;20469;-84
2021/08/03 01:03:34;;;;;;;0.60;0.60;;;14.50;99.90;;;;;;5052474;28;20438;-84
2021/08/03 01:06:05;;;;;;;0.50;0.50;;;14.50;99.90;;;;;;5052470;28;20552;-84
2021/08/03 01:08:41;;;;;;;0.40;0.30;;;14.50;99.90;;;;;;5052489;28;20434;-83
2021/08/03 01:11:11;;;;;;;0.37;0.37;;;14.40;99.90;;;;;;5052288;28;20980;-84
2021/08/03 01:13:49;;;;;;;1.03;0.40;;;14.40;99.90;;;;;;5052520;28;20449;-84
2021/08/03 01:16:27;;;;;;;0.40;0.30;;;14.40;99.90;;;;;;5052659;28;20936;-84
2021/08/03 01:19:01;;;;;;;0.40;0.30;;;14.40;99.90;;;;;;5052968;28;20425;-84
2021/08/03 01:21:46;;;;;;;1.27;0.43;;;14.30;99.90;;;;;;5052356;28;20449;-84
2021/08/03 01:24:25;;;;;;;0.30;0.30;;;14.40;99.90;;;;;;5053731;28;20438;-84
2021/08/03 01:27:11;;;;;;;0.60;0.40;;;14.30;99.90;;;;;;5052855;28;20495;-84
2021/08/03 01:29:43;;;;;;;0.40;0.40;;;14.30;99.90;;;;;;5052498;28;20437;-84
2021/08/03 01:32:11;;;;;;;0.50;0.47;;;14.30;99.90;;;;;;5052850;28;20493;-84
2021/08/03 01:34:40;;;;;;;0.40;0.40;;;14.40;99.90;;;;;;5052816;28;20481;-84
2021/08/03 01:37:07;;;;;;;0.30;0.30;;;14.30;99.90;;;;;;5052891;28;20437;-84
2021/08/03 01:39:37;;;;;;;0.90;0.40;;;14.30;99.90;;;;;;5052411;28;20810;-85
2021/08/03 01:42:07;;;;;;;0.40;0.30;;;14.30;99.90;;;;;;5052725;28;20497;-84
2021/08/03 01:44:35;;;;;;;0.50;0.43;;;14.30;99.90;;;;;;5052671;28;20497;-85
2021/08/03 01:47:05;;;;;;;0.40;0.30;;;14.30;99.90;;;;;;5052398;28;20953;-85
2021/08/03 01:49:36;;;;;;;1.07;1.07;;;14.30;99.90;;;;;;5052787;28;20441;-84
2021/08/03 01:52:03;;;;;;;1.43;1.00;;;14.30;99.90;;;;;;5052808;28;20469;-84
2021/08/03 01:54:31;;;;;;;0.40;0.40;;;14.30;99.90;;;;;;5052803;28;20449;-84
2021/08/03 01:56:58;;;;;;;0.50;0.50;;;14.30;99.90;;;;;;5052363;28;20965;-83
2021/08/03 01:59:25;;;;;;;0.33;0.30;;;14.40;99.90;;;;;;5052607;28;20457;-84
2021/08/03 02:01:53;;;;;;;0.40;0.40;;;14.30;99.90;;;;;;5052062;28;20993;-84
2021/08/03 02:04:22;;;;;;;0.40;0.40;;;14.30;99.90;;;;;;5052224;28;20454;-84
2021/08/03 02:06:50;;;;;;;0.40;0.40;;;14.30;99.90;;;;;;5052487;28;20449;-84
2021/08/03 02:09:17;;;;;;;0.63;0.57;;;14.30;99.90;;;;;;5052637;28;20426;-85
2021/08/03 02:11:47;;;;;;;1.33;0.40;;;14.30;99.90;;;;;;5053948;28;20501;-84
2021/08/03 02:14:14;;;;;;;0.40;0.40;;;14.30;99.90;;;;;;5055926;28;20453;-84
2021/08/03 02:16:41;;;;;;;0.60;0.50;;;14.30;99.90;;;;;;5055706;28;20464;-84
2021/08/03 02:19:08;;;;;;;0.50;0.50;;;14.30;99.90;;;;;;5056209;28;20445;-84
2021/08/03 02:21:38;;;;;;;0.50;0.50;;;14.30;99.90;;;;;;5055544;28;20458;-84
2021/08/03 02:24:05;;;;;;;0.40;0.30;;;14.30;99.90;;;;;;5055443;28;20445;-84
2021/08/03 02:26:32;;;;;;;0.40;0.30;;;14.30;99.90;;;;;;5055743;28;20486;-84
2021/08/03 02:28:59;;;;;;;0.30;0.30;;;14.30;99.90;;;;;;5055736;28;20461;-84
2021/08/03 02:31:33;;;;;;;0.40;0.30;;;14.30;99.90;;;;;;5055459;28;20977;-84
2021/08/03 02:34:05;;;;;;;0.67;0.40;;;14.30;99.90;;;;;;5055630;28;20467;-84
2021/08/03 02:36:38;;;;;;;0.50;0.50;;;14.30;99.90;;;;;;5056369;28;20418;-84
2021/08/03 02:39:07;;;;;;;1.00;0.60;;;14.30;99.90;;;;;;5055189;28;20525;-84
2021/08/03 02:41:34;;;;;;;0.53;0.53;;;14.30;99.90;;;;;;5055416;28;20470;-84
2021/08/03 02:44:02;;;;;;;0.40;0.40;;;14.30;99.90;;;;;;5055467;28;20450;-84
2021/08/03 02:46:30;;;;;;;0.60;0.43;;;14.30;99.90;;;;;;5055312;28;20496;-84
2021/08/03 02:49:03;;;;;;;0.40;0.40;;;14.20;99.90;;;;;;5055136;28;20475;-84
2021/08/03 02:51:31;;;;;;;0.40;0.40;;;14.10;99.90;;;;;;5054963;28;20472;-84
2021/08/03 02:54:01;;;;;;;0.40;0.30;;;14.20;99.90;;;;;;5055189;28;20434;-84
2021/08/03 02:56:31;;;;;;;0.30;0.30;;;14.10;99.90;;;;;;5055256;28;20446;-84
2021/08/03 02:59:03;;;;;;;0.40;0.40;;;14.10;99.90;;;;;;5055127;28;20434;-84
2021/08/03 03:01:32;;;;;;;0.40;0.40;;;14.10;99.90;;;;;;5055203;28;20584;-84
2021/08/03 03:04:07;;;;;;;0.53;0.53;;;14.10;99.90;;;;;;5054793;28;20991;-85
2021/08/03 03:06:35;;;;;;;2.13;0.53;;;14.10;99.90;;;;;;5054759;28;20515;-85
2021/08/03 03:09:03;;;;;;;0.73;0.50;;;14.10;99.90;;;;;;5055143;28;20445;-84
2021/08/03 03:11:33;;;;;;;0.30;0.30;;;14.10;99.90;;;;;;5054814;28;20478;-84
2021/08/03 03:14:03;;;;;;;0.37;0.30;;;14.20;99.90;;;;;;5054562;28;20426;-84
2021/08/03 03:16:34;;;;;;;0.43;0.43;;;14.10;99.90;;;;;;5054612;28;20426;-84
2021/08/03 03:19:04;;;;;;;0.57;0.53;;;14.10;99.90;;;;;;5054841;28;20437;-84
2021/08/03 03:21:31;;;;;;;0.30;0.27;;;14.10;99.90;;;;;;5053908;28;20849;-84
2021/08/03 03:23:58;;;;;;;0.40;0.40;;;14.10;99.90;;;;;;5054489;28;20932;-84
2021/08/03 03:26:28;;;;;;;0.40;0.40;;;14.10;99.90;;;;;;5054481;28;20489;-84
2021/08/03 03:28:57;;;;;;;0.30;0.30;;;14.10;99.90;;;;;;5054255;28;20457;-84
2021/08/03 03:31:28;;;;;;;0.40;0.40;;;14.00;99.90;;;;;;5054171;28;20973;-84
2021/08/03 03:33:57;;;;;;;1.13;0.40;;;14.00;99.90;;;;;;5054546;28;20445;-84
2021/08/03 03:36:26;;;;;;;0.80;0.40;;;14.00;99.90;;;;;;5054040;28;20473;-84
2021/08/03 03:38:53;;;;;;;0.40;0.30;;;13.90;99.90;;;;;;5054325;28;20450;-84
2021/08/03 03:41:23;;;;;;;0.40;0.30;;;13.90;99.90;;;;;;5054043;28;20468;-84
2021/08/03 03:43:49;;;;;;;0.77;0.40;;;13.90;99.90;;;;;;5054338;28;20442;-84
2021/08/03 03:46:21;;;;;;;0.40;0.40;;;13.80;99.90;;;;;;5053982;28;20481;-84
2021/08/03 03:48:51;;;;;;;0.50;0.40;;;13.80;99.90;;;;;;5054384;28;20449;-84
2021/08/03 03:51:24;;;;;;;0.77;0.40;;;13.80;99.90;;;;;;5054162;28;20515;-84
2021/08/03 03:53:55;;;;;;;0.30;0.30;;;13.80;99.90;;;;;;5053945;28;20836;-84
2021/08/03 03:56:25;;;;;;;0.30;0.30;;;13.80;99.90;;;;;;5054118;28;20442;-84
2021/08/03 03:58:58;;;;;;;0.40;0.30;;;13.80;99.90;;;;;;5053744;28;20434;-84
2021/08/03 04:01:28;;;;;;;0.50;0.40;;;13.80;99.90;;;;;;5053822;28;20453;-84
2021/08/03 04:03:58;;;;;;;1.03;0.53;;;13.80;99.90;;;;;;5053670;28;20952;-84
2021/08/03 04:06:26;;;;;;;0.40;0.30;;;13.80;99.90;;;;;;5054024;28;20470;-85
2021/08/03 04:08:52;;;;;;;2.00;0.33;;;13.80;99.90;;;;;;5053971;28;20449;-84
2021/08/03 04:11:19;;;;;;;1.30;0.40;;;13.90;99.90;;;;;;5053473;28;20470;-85
2021/08/03 04:13:49;;;;;;;0.40;0.37;;;13.80;99.90;;;;;;5053463;28;20446;-85
2021/08/03 04:16:16;;;;;;;0.40;0.30;;;13.90;99.90;;;;;;5053717;28;20452;-83
2021/08/03 04:18:44;;;;;;;0.40;0.30;;;13.90;99.90;;;;;;5053406;28;20814;-84
2021/08/03 04:21:11;;;;;;;0.37;0.37;;;13.80;99.90;;;;;;5053249;28;20466;-83
2021/08/03 04:23:37;;;;;;;0.40;0.37;;;13.80;99.90;;;;;;5053371;28;20457;-84
2021/08/03 04:26:04;;;;;;;0.40;0.30;;;13.80;99.90;;;;;;5053541;28;20470;-84
2021/08/03 04:28:31;;;;;;;0.40;0.30;;;13.90;99.90;;;;;;5053524;28;20449;-85
2021/08/03 04:30:59;;;;;;;0.40;0.40;;;13.90;99.90;;;;;;5053315;28;20473;-84
2021/08/03 04:33:26;;;;;;;0.40;0.40;;;13.90;99.90;;;;;;5052986;28;20452;-84
2021/08/03 04:35:55;;;;;;;0.40;0.40;;;13.90;99.90;;;;;;5053109;28;20989;-84
2021/08/03 04:38:21;;;;;;;0.80;0.50;;;13.90;99.90;;;;;;5053482;28;20446;-84
2021/08/03 04:40:48;;;;;;;0.40;0.40;;;13.90;99.90;;;;;;5052910;28;20843;-84
2021/08/03 04:43:15;;;;;;;0.40;0.30;;;13.90;99.90;;;;;;5053763;28;20438;-84
2021/08/03 04:45:41;;;;;;;0.40;0.30;;;13.90;99.90;;;;;;5052969;28;20477;-84
2021/08/03 04:48:08;;;;;;;0.90;0.50;;;13.90;99.90;;;;;;5053267;28;20454;-84
2021/08/03 04:50:35;;;;;;;1.33;0.60;;;14.00;99.90;;;;;;5052922;28;20960;-84
2021/08/03 04:53:03;;;;;;;0.40;0.40;;;13.90;99.90;;;;;;5053063;28;20442;-85
2021/08/03 04:55:30;;;;;;;0.30;0.30;;;14.00;99.90;;;;;;5053193;28;20437;-84
2021/08/03 04:57:57;;;;;;;0.70;0.40;;;14.00;99.90;;;;;;5053187;28;20465;-84
2021/08/03 05:00:24;;;;;;;0.40;0.40;;;14.00;99.90;;;;;;5053120;28;20480;-84
2021/08/03 05:02:51;;;;;;;0.80;0.40;;;14.10;99.90;;;;;;5053108;28;20452;-84
2021/08/03 05:05:18;;;;;;;0.40;0.40;;;14.10;99.90;;;;;;5052757;28;20441;-85
2021/08/03 05:07:55;;;;;;;0.50;0.50;;;14.10;99.90;;;;;;5053050;28;20449;-84
2021/08/03 05:10:24;;;;;;;0.63;0.43;;;14.10;99.90;;;;;;5052844;28;20866;-84
2021/08/03 05:12:51;;;;;;;0.30;0.30;;;14.10;99.90;;;;;;5052715;28;20975;-84
2021/08/03 05:15:18;;;;;;;0.70;0.40;;;14.10;99.90;;;;;;5052979;28;20454;-84
2021/08/03 05:17:44;;;;;;;0.80;0.47;;;14.10;99.90;;;;;;5052942;28;20449;-84
2021/08/03 05:20:13;;;;;;;0.30;0.30;;;14.10;99.90;;;;;;5052652;28;20458;-84
2021/08/03 05:22:40;;;;;;;0.40;0.40;;;14.10;99.90;;;;;;5052710;28;20446;-84
2021/08/03 05:25:07;;;;;;;0.40;0.40;;;14.10;99.90;;;;;;5052951;28;20461;-84
2021/08/03 05:27:35;;;;;;;0.90;0.60;;;14.10;99.90;;;;;;5052552;28;21010;-84
2021/08/03 05:30:02;;;;;;;0.50;0.30;;;14.10;99.90;;;;;;5052688;28;20441;-84
2021/08/03 05:32:29;;;;;;;0.40;0.40;;;14.10;99.90;;;;;;5052811;28;20449;-84
2021/08/03 05:34:55;;;;;;;0.40;0.30;;;14.10;99.90;;;;;;5052627;28;20851;-84
2021/08/03 05:37:22;;;;;;;0.40;0.33;;;14.00;99.90;;;;;;5053127;28;20454;-84
2021/08/03 05:39:49;;;;;;;0.50;0.50;;;14.10;99.90;;;;;;5052569;28;20437;-84
2021/08/03 05:42:16;;;;;;;0.50;0.50;;;14.10;99.90;;;;;;5052478;28;20437;-85
2021/08/03 05:44:44;;;;;;;0.30;0.30;;;14.10;99.90;;;;;;5052967;28;20453;-84
2021/08/03 05:47:10;;;;;;;0.57;0.37;;;14.10;99.90;;;;;;5056560;28;20481;-85
2021/08/03 05:49:37;;;;;;;0.40;0.40;;;14.10;99.90;;;;;;5056518;28;20458;-85
2021/08/03 05:52:04;;;;;;;0.67;0.57;;;14.20;99.90;;;;;;5056458;28;20465;-84
2021/08/03 05:54:31;;;;;;;0.40;0.40;;;14.20;99.90;;;;;;5056347;28;20944;-84
2021/08/03 05:56:58;;;;;;;0.50;0.40;;;14.20;99.90;;;;;;5056392;28;20461;-84
2021/08/03 05:59:24;;;;;;;0.50;0.40;;;14.40;99.90;;;;;;5056049;28;20442;-84
2021/08/03 06:01:52;;;;;;;0.40;0.40;;;14.40;99.90;;;;;;5056134;28;20470;-84
2021/08/03 06:04:19;;;;;;;0.40;0.30;;;14.50;99.90;;;;;;5055918;28;20964;-84
2021/08/03 06:06:49;;;;;;;0.50;0.50;;;14.60;99.90;;;;;;5055928;28;20480;-84
2021/08/03 06:09:16;;;;;;;0.73;0.60;;;14.70;99.90;;;;;;5056215;28;20457;-84
2021/08/03 06:11:46;;;;;;;0.30;0.30;;;14.80;99.90;;;;;;5055812;28;20472;-84
2021/08/03 06:14:16;;;;;;;0.50;0.50;;;14.80;99.90;;;;;;5056185;28;20426;-84
2021/08/03 06:16:44;;;;;;;0.40;0.40;;;14.90;99.90;;;;;;5055991;28;20517;-84
2021/08/03 06:19:15;;;;;;;0.80;0.40;;;15.00;99.90;;;;;;5055995;28;20794;-84
2021/08/03 06:21:42;;;;;;;0.40;0.30;;;15.10;99.90;;;;;;5055371;28;20472;-84
2021/08/03 06:24:09;;;;;;;0.50;0.50;;;15.20;99.90;;;;;;5055905;28;20450;-84
2021/08/03 06:26:36;;;;;;;0.70;0.30;;;15.20;99.90;;;;;;5055513;28;20840;-84
2021/08/03 06:29:03;;;;;;;0.40;0.30;;;15.30;99.90;;;;;;5047598;28;20440;-83
2021/08/03 06:31:30;;;;;;;0.40;0.30;;;15.40;99.90;;;;;;5055413;28;21003;-84
2021/08/03 06:33:57;;;;;;;0.40;0.30;;;15.50;99.90;;;;;;5055819;28;20434;-84
2021/08/03 06:36:25;;;;;;;0.60;0.60;;;15.60;99.90;;;;;;5055167;28;21002;-84
2021/08/03 06:38:52;;;;;;;0.40;0.40;;;15.70;99.90;;;;;;5055702;28;20449;-84
2021/08/03 06:41:26;;;;;;;0.50;0.40;;;15.90;99.90;;;;;;5055533;28;20469;-84
2021/08/03 06:43:55;;;;;;;1.03;0.30;;;16.20;99.90;;;;;;5055668;28;20441;-84
2021/08/03 06:46:24;;;;;;;0.60;0.50;;;16.40;99.90;;;;;;5055103;28;20477;-84
2021/08/03 06:48:57;;;;;;;0.67;0.67;;;16.60;99.90;;;;;;5055545;28;20436;-85
2021/08/03 06:51:27;;;;;;;0.30;0.30;;;16.70;99.90;;;;;;5057025;28;20474;-84
2021/08/03 06:53:58;;;;;;;0.50;0.50;;;16.60;99.90;;;;;;5058725;28;20434;-84
2021/08/03 06:56:28;;;;;;;0.70;0.47;;;16.60;99.90;;;;;;5054942;28;20784;-85
2021/08/03 06:59:00;;;;;;;1.10;0.60;;;16.50;99.90;;;;;;5054780;28;20454;-84
2021/08/03 07:01:37;;;;;;;0.40;0.40;;;16.40;99.90;;;;;;5055291;28;20872;-84
2021/08/03 07:04:05;;;;;;;1.60;0.50;;;16.40;99.90;;;;;;5055179;28;20796;-84
2021/08/03 07:06:34;;;;;;;0.40;0.30;;;16.40;99.90;;;;;;5054875;28;20488;-84
2021/08/03 07:09:05;;;;;;;0.40;0.40;;;16.50;99.90;;;;;;5054851;28;20441;-84
2021/08/03 07:11:32;;;;;;;0.37;0.37;;;16.50;99.90;;;;;;5054977;28;20466;-83
2021/08/03 07:14:00;;;;;;;0.70;0.50;;;16.50;99.90;;;;;;5054995;28;20876;-85
2021/08/03 07:16:28;;;;;;;2.60;0.87;;;16.60;99.90;;;;;;5054937;28;20450;-84
2021/08/03 07:18:56;;;;;;;0.40;0.40;;;16.70;99.90;;;;;;5055342;28;20908;-84
2021/08/03 07:21:24;;;;;;;0.77;0.60;;;16.80;99.90;;;;;;5054627;28;20480;-84
2021/08/03 07:23:55;;;;;;;0.63;0.53;;;16.80;99.90;;;;;;5054409;28;20937;-84
2021/08/03 07:26:22;;;;;;;0.40;0.40;;;16.80;99.90;;;;;;5054789;28;20473;-84
2021/08/03 07:28:49;;;;;;;0.77;0.60;;;16.90;99.90;;;;;;5054604;28;20529;-85
2021/08/03 07:31:16;;;;;;;0.50;0.40;;;17.00;99.90;;;;;;5054585;28;20473;-84
2021/08/03 07:33:42;;;;;;;0.40;0.40;;;17.00;99.90;;;;;;5054246;28;20457;-84
2021/08/03 07:36:09;;;;;;;0.60;0.40;;;17.10;99.90;;;;;;5054049;28;20481;-84
2021/08/03 07:38:36;;;;;;;0.43;0.40;;;17.20;99.90;;;;;;5054631;28;20828;-84
2021/08/03 07:41:04;;;;;;;0.40;0.30;;;17.20;99.90;;;;;;5054411;28;20469;-84
2021/08/03 07:43:31;;;;;;;0.90;0.40;;;17.40;99.90;;;;;;5054705;28;20446;-84
2021/08/03 07:45:58;;;;;;;0.50;0.50;;;17.60;99.90;;;;;;5054281;28;20450;-84
2021/08/03 07:48:24;;;;;;;0.80;0.50;;;17.70;99.90;;;;;;5054286;28;20478;-84
2021/08/03 07:50:51;;;;;;;0.60;0.50;;;17.70;99.90;;;;;;5054096;28;20833;-83
2021/08/03 07:53:18;;;;;;;0.30;0.30;;;17.70;99.90;;;;;;5054004;28;20449;-84
2021/08/03 07:55:44;;;;;;;0.40;0.40;;;17.80;99.90;;;;;;5053892;28;20453;-84
2021/08/03 07:58:12;;;;;;;1.57;0.47;;;17.90;99.90;;;;;;5054027;28;20450;-84
2021/08/03 08:00:39;;;;;;;0.40;0.40;;;17.80;99.90;;;;;;5053934;28;20473;-84
2021/08/03 08:03:06;;;;;;;0.43;0.43;;;17.80;99.90;;;;;;5054073;28;20449;-84
2021/08/03 08:05:33;;;;;;;0.40;0.40;;;17.80;99.90;;;;;;5053729;28;20434;-84
2021/08/03 08:08:00;;;;;;;0.93;0.40;;;17.70;99.90;;;;;;5053225;28;20477;-85
2021/08/03 08:10:28;;;;;;;1.70;0.60;;;17.70;99.90;;;;;;5053227;28;20853;-84
2021/08/03 08:12:54;;;;;;;0.50;0.40;;;17.70;99.90;;;;;;5053566;28;20446;-84
2021/08/03 08:15:22;;;;;;;0.60;0.60;;;17.80;99.90;;;;;;5053524;28;20445;-84
2021/08/03 08:17:49;;;;;;;0.50;0.40;;;17.80;99.90;;;;;;5053448;28;20442;-84
2021/08/03 08:20:16;;;;;;;0.40;0.40;;;17.80;99.90;;;;;;5053550;28;20841;-83
2021/08/03 08:22:44;;;;;;;0.63;0.63;;;17.70;99.90;;;;;;5053762;28;20442;-84
2021/08/03 08:25:11;;;;;;;0.63;0.40;;;17.70;99.90;;;;;;5053587;28;20496;-83
2021/08/03 08:27:39;;;;;;;0.40;0.37;;;17.70;99.90;;;;;;5053545;28;20488;-84
2021/08/03 08:30:07;;;;;;;0.50;0.50;;;17.70;99.90;;;;;;5053584;28;20457;-84
2021/08/03 08:32:35;;;;;;;0.40;0.37;;;17.70;99.90;;;;;;5054158;28;20449;-84
2021/08/03 08:35:03;;;;;;;0.50;0.40;;;17.80;99.90;;;;;;5053424;28;20473;-84
2021/08/03 08:37:29;;;;;;;0.30;0.30;;;17.90;99.90;;;;;;5053462;28;20452;-84
2021/08/03 08:39:56;;;;;;;0.40;0.37;;;18.00;99.90;;;;;;5053246;28;20461;-84
2021/08/03 08:42:24;;;;;;;0.43;0.30;;;18.10;99.90;;;;;;5053143;28;20965;-84
2021/08/03 08:44:51;;;;;;;0.50;0.50;;;18.10;99.90;;;;;;5053133;28;20949;-84
2021/08/03 08:47:18;;;;;;;0.43;0.43;;;18.20;99.90;;;;;;5053131;28;20980;-84
2021/08/03 08:49:46;;;;;;;0.87;0.40;;;18.30;99.90;;;;;;5053507;28;20448;-84
2021/08/03 08:52:14;;;;;;;0.57;0.47;;;18.30;99.90;;;;;;5053143;28;20470;-84
2021/08/03 08:54:41;;;;;;;0.50;0.50;;;18.40;99.90;;;;;;5053149;28;20462;-84
2021/08/03 08:57:08;;;;;;;1.27;0.60;;;18.40;99.90;;;;;;5052857;28;20897;-84
2021/08/03 08:59:36;;;;;;;0.40;0.40;;;18.50;99.90;;;;;;5052884;28;20442;-84
2021/08/03 09:02:04;;;;;;;0.60;0.60;;;18.50;99.90;;;;;;5053248;28;20476;-84
2021/08/03 09:04:31;;;;;;;2.10;0.60;;;18.40;99.90;;;;;;5052827;28;20971;-84
2021/08/03 09:07:05;;;;;;;1.37;0.63;;;18.40;99.90;;;;;;5053189;28;20531;-84
2021/08/03 09:09:40;;;;;;;0.40;0.40;;;18.30;99.90;;;;;;5053786;28;20506;-83
2021/08/03 09:12:07;;;;;;;0.33;0.33;;;18.20;99.90;;;;;;5053422;28;20972;-84
2021/08/03 09:14:35;;;;;;;0.40;0.40;;;18.10;99.90;;;;;;5052768;28;20431;-83
2021/08/03 09:17:02;;;;;;;0.40;0.33;;;18.00;99.90;;;;;;5052796;28;20492;-83
2021/08/03 09:19:31;;;;;;;0.40;0.37;;;17.90;99.90;;;;;;5053034;28;20430;-83
2021/08/03 09:22:17;;;;;;;0.70;0.40;;;17.70;99.90;;;;;;5056578;28;20980;-82
2021/08/03 09:24:48;;;;;;;0.40;0.40;;;17.50;99.90;;;;;;5057002;28;20410;-82
2021/08/03 09:27:37;;;;;;;0.50;0.40;;;17.40;99.90;;;;;;5056942;28;20553;-78
2021/08/03 09:30:06;;;;;;;0.40;0.40;;;17.20;99.90;;;;;;5056748;28;20478;-78
2021/08/03 09:32:34;;;;;;;0.50;0.50;;;17.20;99.90;;;;;;5056908;28;20457;-78
2021/08/03 09:35:10;;;;;;;0.80;0.60;;;17.10;99.90;;;;;;5056360;28;20488;-79
2021/08/03 09:37:39;;;;;;;0.40;0.40;;;17.10;99.90;;;;;;5056651;28;20456;-79
2021/08/03 09:40:18;;;;;;;0.40;0.33;;;17.20;99.90;;;;;;5056685;28;20437;-78
2021/08/03 09:42:44;;;;;;;0.40;0.40;;;17.10;99.90;;;;;;5056424;28;20932;-78
2021/08/03 09:45:11;;;;;;;1.17;0.50;;;17.10;99.90;;;;;;5056675;28;20437;-79
2021/08/03 09:47:39;;;;;;;0.60;0.60;;;17.10;99.90;;;;;;5056266;28;20977;-79
2021/08/03 09:50:08;;;;;;;0.53;0.53;;;17.00;99.90;;;;;;5056452;28;20425;-79
2021/08/03 09:52:39;;;;;;;1.00;0.70;;;17.00;99.90;;;;;;5056277;28;20528;-79
2021/08/03 09:55:15;;;;;;;0.90;0.50;;;16.90;99.90;;;;;;5056323;28;20433;-79
2021/08/03 09:57:43;;;;;;;0.70;0.53;;;16.80;99.90;;;;;;5056820;28;20472;-79
2021/08/03 10:00:28;;;;;;;0.40;0.40;;;16.80;99.90;;;;;;5056366;28;20445;-79
2021/08/03 10:02:55;;;;;;;0.40;0.40;;;16.70;99.90;;;;;;5056430;28;20529;-78
2021/08/03 10:05:23;;;;;;;0.60;0.43;;;16.60;99.90;;;;;;5056308;28;20449;-79
2021/08/03 10:07:49;;;;;;;0.50;0.50;;;16.50;99.90;;;;;;5056668;28;20481;-89
2021/08/03 10:10:18;;;;;;;0.50;0.40;;;16.60;99.90;;;;;;5056143;28;20478;-79
2021/08/03 10:12:45;;;;;;;0.60;0.43;;;16.60;99.90;;;;;;5056218;28;20449;-79
2021/08/03 10:15:13;;;;;;;1.03;0.60;;;16.50;99.90;;;;;;5055897;28;20437;-79
2021/08/03 10:17:40;;;;;;;0.60;0.60;;;16.50;99.90;;;;;;5055811;28;21008;-79
2021/08/03 10:20:09;;;;;;;2.00;0.50;;;16.50;99.90;;;;;;5055762;28;20435;-79
2021/08/03 10:22:40;;;;;;;0.40;0.30;;;16.30;99.90;;;;;;5056061;28;20445;-79
2021/08/03 10:25:11;;;;;;;0.40;0.30;;;16.30;99.90;;;;;;5056405;28;20765;-80
2021/08/03 10:27:45;;;;;;;0.40;0.40;;;16.20;99.90;;;;;;5056156;28;20488;-80
2021/08/03 10:30:36;;;;;;;0.40;0.40;;;16.30;99.90;;;;;;5055903;28;20481;-79
2021/08/03 10:33:09;;;;;;;0.70;0.43;;;16.40;99.90;;;;;;5055227;28;20434;-80
2021/08/03 10:35:43;;;;;;;0.50;0.50;;;16.60;99.90;;;;;;5055473;28;20571;-79
2021/08/03 10:38:12;;;;;;;0.87;0.87;;;16.70;99.90;;;;;;5055495;28;20999;-80
2021/08/03 10:41:18;;;;;;;0.53;0.53;;;16.70;99.90;;;;;;5055685;28;20565;-79
2021/08/03 10:43:53;;;;;;;0.60;0.40;;;16.80;99.90;;;;;;5055859;28;20894;-81
2021/08/03 10:46:38;;;;;;;0.80;0.80;;;16.70;99.90;;;;;;5055612;28;20445;-81
2021/08/03 10:49:06;;;;;;;0.80;0.80;;;16.60;99.90;;;;;;5055599;28;20519;-82
2021/08/03 10:51:44;;;;;;;0.53;0.50;;;16.40;99.90;;;;;;5055465;28;20470;-82
2021/08/03 10:54:13;;;;;;;1.13;0.63;;;16.20;99.90;;;;;;5056047;28;20460;-82
2021/08/03 10:57:14;;;;;;;0.40;0.40;;;16.20;99.90;;;;;;5055079;28;21024;-82
2021/08/03 10:59:42;;;;;;;0.57;0.40;;;16.30;99.90;;;;;;5052067;28;20466;-81
2021/08/03 11:02:10;;;;;;;0.40;0.40;;;16.60;99.90;;;;;;5055174;28;20473;-81
2021/08/03 11:04:56;;;;;;;0.30;0.30;;;16.70;99.90;;;;;;5055285;28;20425;-81
2021/08/03 11:07:30;;;;;;;1.07;0.60;;;16.80;99.90;;;;;;5054854;28;20442;-80
2021/08/03 11:09:58;;;;;;;0.60;0.50;;;16.70;99.90;;;;;;5055100;28;20441;-80
2021/08/03 11:12:36;;;;;;;1.13;0.40;;;16.80;99.90;;;;;;5055148;28;20434;-80
2021/08/03 11:15:38;;;;;;;0.50;0.40;;;16.80;99.90;;;;;;5054958;28;20420;-78
2021/08/03 11:18:08;;;;;;;0.60;0.60;;;16.90;99.90;;;;;;5055019;28;20425;-80
2021/08/03 11:21:12;;;;;;;0.43;0.43;;;16.90;99.90;;;;;;5055101;28;20496;-80
2021/08/03 11:24:09;;;;;;;0.80;0.50;;;17.00;99.90;;;;;;5054892;28;20442;-80
2021/08/03 11:26:38;;;;;;;0.50;0.40;;;17.10;99.90;;;;;;5054883;28;20481;-80
2021/08/03 11:29:09;;;;;;;0.40;0.40;;;17.10;99.90;;;;;;5054739;28;20485;-79
2021/08/03 11:31:48;;;;;;;0.40;0.40;;;17.20;99.90;;;;;;5054701;28;20469;-80
2021/08/03 11:34:18;;;;;;;0.47;0.30;;;17.30;99.90;;;;;;5055030;28;20430;-80
2021/08/03 11:36:57;;;;;;;0.30;0.30;;;17.30;99.90;;;;;;5054427;28;21022;-79
2021/08/03 11:39:25;;;;;;;0.40;0.40;;;17.50;99.90;;;;;;5054527;28;20450;-80
2021/08/03 11:41:52;;;;;;;0.93;0.70;;;17.60;99.90;;;;;;5054466;28;20466;-79
2021/08/03 11:44:21;;;;;;;1.13;0.40;;;17.60;99.90;;;;;;5054269;28;20442;-79
2021/08/03 11:46:59;;;;;;;1.40;0.60;;;17.60;99.90;;;;;;5054142;28;20434;-79
2021/08/03 11:49:31;;;;;;;0.40;0.30;;;17.60;99.90;;;;;;5054057;28;21060;-79
2021/08/03 11:52:16;;;;;;;0.93;0.30;;;17.60;99.90;;;;;;5054268;28;20472;-79
2021/08/03 11:54:45;;;;;;;0.30;0.30;;;17.50;99.90;;;;;;5054249;28;20460;-79
2021/08/03 11:57:26;;;;;;;0.40;0.40;;;17.30;99.90;;;;;;5053935;28;20456;-81
2021/08/03 12:00:16;;;;;;;0.63;0.63;;;17.20;99.90;;;;;;5053858;28;21028;-80
2021/08/03 12:02:47;;;;;;;1.07;0.40;;;17.00;99.90;;;;;;5054206;28;20411;-80
2021/08/03 12:05:19;;;;;;;0.73;0.50;;;17.00;99.90;;;;;;5054122;28;20445;-80
2021/08/03 12:07:49;;;;;;;0.97;0.70;;;16.90;99.90;;;;;;5053967;28;20488;-80
2021/08/03 12:10:16;;;;;;;0.57;0.50;;;16.90;99.90;;;;;;5053924;28;20469;-79
2021/08/03 12:12:47;;;;;;;1.57;1.07;;;17.00;99.90;;;;;;5213392;22;20487;-83
2021/08/03 12:15:15;;;;;;;0.50;0.50;;;17.10;99.90;;;;;;5172875;22;21035;-82
2021/08/03 12:17:45;;;;;;;1.47;0.60;;;17.10;99.90;;;;;;5052189;28;20457;-81
2021/08/03 12:20:46;;;;;;;2.00;0.40;;;17.30;99.90;;;;;;5052578;28;20496;-82
2021/08/03 12:23:22;;;;;;;0.40;0.30;;;17.50;99.90;;;;;;5046151;28;20457;-81
2021/08/03 12:25:52;;;;;;;0.80;0.40;;;17.60;99.90;;;;;;5053775;28;20417;-81
2021/08/03 12:28:40;;;;;;;0.50;0.50;;;17.70;99.90;;;;;;5390741;22;20568;-80
2021/08/03 12:31:24;;;;;;;0.77;0.50;;;17.80;99.90;;;;;;5053560;28;20461;-80
2021/08/03 12:33:53;;;;;;;0.40;0.40;;;17.80;99.90;;;;;;5054170;28;20526;-80
2021/08/03 12:36:21;;;;;;;0.50;0.30;;;17.90;99.90;;;;;;5053493;28;20446;-80
2021/08/03 12:39:23;;;;;;;0.30;0.30;;;17.90;99.90;;;;;;5053288;28;20411;-80
2021/08/03 12:42:09;;;;;;;0.30;0.30;;;18.00;99.90;;;;;;5053155;28;20461;-80
2021/08/03 12:44:39;;;;;;;0.43;0.40;;;18.20;99.90;;;;;;5053163;28;20429;-80
2021/08/03 12:47:12;;;;;;;1.40;0.57;;;18.40;99.90;;;;;;5053086;28;20417;-80
2021/08/03 12:49:42;;;;;;;0.43;0.43;;;18.60;99.90;;;;;;5053364;28;20461;-81
2021/08/03 12:52:12;;;;;;;0.97;0.50;;;18.70;99.90;;;;;;5052863;28;20480;-81
2021/08/03 12:54:40;;;;;;;0.40;0.30;;;18.70;99.90;;;;;;5053764;28;20434;-80
2021/08/03 12:57:14;;;;;;;0.67;0.40;;;18.60;99.90;;;;;;5053204;28;20480;-80
2021/08/03 12:59:43;;;;;;;0.30;0.30;;;18.50;99.90;;;;;;5053400;28;20430;-82
2021/08/03 13:02:15;;;;;;;0.40;0.40;;;18.30;99.90;;;;;;5053155;28;20465;-81
2021/08/03 13:04:59;;;;;;;0.40;0.40;;;18.30;99.90;;;;;;5053227;28;20460;-82